createdAt,value
2022-12-08T00:03:25.811Z,32.43
2022-12-08T00:08:46.658Z,31.70
2022-12-08T00:13:48.982Z,34.03
2022-12-08T00:18:51.547Z,31.30
2022-12-08T00:23:55.523Z,31.40
2022-12-08T00:28:57.286Z,34.23
2022-12-08T00:34:00.948Z,31.70
2022-12-08T00:39:03.514Z,31.50
2022-12-08T00:44:10.815Z,33.70
2022-12-08T00:49:13.048Z,34.50
2022-12-08T00:54:14.854Z,33.13
2022-12-08T00:59:17.512Z,31.40
2022-12-08T01:04:20.558Z,32.27
2022-12-08T01:09:23.211Z,32.87
2022-12-08T01:14:25.751Z,32.47
2022-12-08T01:19:27.526Z,32.73
2022-12-08T01:24:29.354Z,31.97
2022-12-08T01:29:31.137Z,32.40
2022-12-08T01:34:32.916Z,34.00
2022-12-08T01:39:35.187Z,34.97
2022-12-08T01:44:42.877Z,33.90
2022-12-08T01:49:44.881Z,34.63
2022-12-08T01:54:58.255Z,31.90
2022-12-08T02:00:08.638Z,32.97
2022-12-08T02:05:11.418Z,31.53
2022-12-08T02:10:18.613Z,32.03
2022-12-08T02:15:41.949Z,30.90
2022-12-08T02:21:12.421Z,32.13
2022-12-08T02:26:40.671Z,32.73
2022-12-08T02:32:16.126Z,31.97
2022-12-08T02:37:26.494Z,31.27
2022-12-08T02:42:44.453Z,31.27
2022-12-08T02:47:46.767Z,32.70
2022-12-08T02:52:48.766Z,31.50
2022-12-08T02:58:17.306Z,32.17
2022-12-08T03:03:32.175Z,31.67
2022-12-08T03:08:53.981Z,32.63
2022-12-08T03:13:59.982Z,32.50
2022-12-08T03:19:11.088Z,31.12
2022-12-08T03:24:15.510Z,30.97
2022-12-08T03:29:18.683Z,31.87
2022-12-08T03:34:24.521Z,31.73
2022-12-08T03:39:26.439Z,31.00
2022-12-08T03:44:28.858Z,32.33
2022-12-08T03:49:30.668Z,32.40
2022-12-08T03:54:33.187Z,32.87
2022-12-08T03:59:35.029Z,32.03
2022-12-08T04:04:36.793Z,33.80
2022-12-08T04:09:40.929Z,33.27
2022-12-08T04:14:42.920Z,32.07
2022-12-08T04:19:44.950Z,37.03
2022-12-08T04:24:47.704Z,38.83
2022-12-08T04:29:50.558Z,31.03
2022-12-08T04:34:52.457Z,32.07
2022-12-08T04:39:54.591Z,33.40
2022-12-08T04:44:56.956Z,32.70
2022-12-08T04:49:59.084Z,31.50
2022-12-08T04:55:01.405Z,32.73
2022-12-08T05:00:07.900Z,33.07
2022-12-08T05:05:10.111Z,33.95
2022-12-08T05:10:14.201Z,34.37
2022-12-08T05:15:16.617Z,44.27
2022-12-08T05:20:19.058Z,36.47
2022-12-08T05:25:20.896Z,36.00
2022-12-08T05:30:23.970Z,32.57
2022-12-08T05:35:26.298Z,34.37
2022-12-08T05:40:28.644Z,33.10
2022-12-08T05:45:31.058Z,37.20
2022-12-08T05:50:32.926Z,36.87
2022-12-08T05:55:35.289Z,33.23
2022-12-08T06:00:37.291Z,35.70
2022-12-08T06:05:41.191Z,34.40
2022-12-08T06:10:44.585Z,33.13
2022-12-08T06:15:46.525Z,31.43
2022-12-08T06:20:48.337Z,34.23
2022-12-08T06:25:50.489Z,36.83
2022-12-08T06:30:52.522Z,29.97
2022-12-08T06:35:54.372Z,32.20
2022-12-08T06:40:57.758Z,32.30
2022-12-08T06:46:00.997Z,33.27
2022-12-08T06:51:16.587Z,33.67
2022-12-08T06:56:19.455Z,30.57
2022-12-08T07:01:21.850Z,32.90
2022-12-08T07:06:24.979Z,33.33
2022-12-08T07:11:27.174Z,32.43
2022-12-08T07:16:29.364Z,35.60
2022-12-08T07:21:31.517Z,36.73
2022-12-08T07:26:33.670Z,31.53
2022-12-08T07:31:35.948Z,31.80
2022-12-08T07:36:37.668Z,32.57
2022-12-08T07:41:39.419Z,34.10
2022-12-08T07:46:41.777Z,33.07
2022-12-08T07:51:44.205Z,32.83
2022-12-08T07:56:46.034Z,32.00
2022-12-08T08:02:06.340Z,32.63
2022-12-08T08:06:51.735Z,32.53
2022-12-08T08:12:22.323Z,34.50
2022-12-08T08:16:57.565Z,35.20
2022-12-08T08:21:59.390Z,33.83
2022-12-08T08:27:01.169Z,34.43
2022-12-08T08:32:03.531Z,32.53
2022-12-08T08:37:05.390Z,33.33
2022-12-08T08:42:07.957Z,33.83
2022-12-08T08:47:10.638Z,33.50
2022-12-08T08:52:13.368Z,32.93
2022-12-08T08:57:17.454Z,32.87
2022-12-08T09:02:20.326Z,34.97
2022-12-08T09:07:23.031Z,35.13
2022-12-08T09:12:25.012Z,35.90
2022-12-08T09:17:27.237Z,37.30
2022-12-08T09:22:29.315Z,37.23
2022-12-08T09:27:31.861Z,36.60
2022-12-08T09:32:34.050Z,41.10
2022-12-08T09:37:35.921Z,36.40
2022-12-08T09:43:04.024Z,41.67
2022-12-08T09:48:13.559Z,50.17
2022-12-08T09:53:35.636Z,40.37
2022-12-08T09:58:57.725Z,39.47
2022-12-08T10:04:01.031Z,36.33
2022-12-08T10:09:23.319Z,35.67
2022-12-08T10:14:33.878Z,33.10
2022-12-08T10:19:37.861Z,33.53
2022-12-08T10:24:44.612Z,32.57
2022-12-08T10:29:46.382Z,30.30
2022-12-08T10:35:04.517Z,32.67
2022-12-08T10:40:16.991Z,32.60
2022-12-08T10:45:38.238Z,32.93
2022-12-08T10:50:52.064Z,33.17
2022-12-08T10:56:08.254Z,33.57
2022-12-08T11:01:26.912Z,35.85
2022-12-08T11:06:38.768Z,34.57
2022-12-08T11:11:56.881Z,33.30
2022-12-08T11:17:24.173Z,37.17
2022-12-08T11:22:45.600Z,33.83
2022-12-08T11:27:50.043Z,34.40
2022-12-08T11:32:59.878Z,33.17
2022-12-08T11:38:21.016Z,35.27
2022-12-08T11:43:23.738Z,35.13
2022-12-08T11:48:42.832Z,35.23
2022-12-08T11:54:13.459Z,33.73
2022-12-08T11:59:46.732Z,33.60
2022-12-08T12:05:05.522Z,33.87
2022-12-08T12:10:19.449Z,34.50
2022-12-08T12:15:51.374Z,34.50
2022-12-08T12:20:58.423Z,35.10
2022-12-08T12:26:08.316Z,33.30
2022-12-08T12:31:15.776Z,34.43
2022-12-08T12:36:19.076Z,40.40
2022-12-08T12:41:25.977Z,46.67
2022-12-08T12:46:36.935Z,38.10
2022-12-08T12:51:45.769Z,41.70
2022-12-08T12:56:55.873Z,39.77
2022-12-08T13:01:57.930Z,37.70
2022-12-08T13:07:00.359Z,38.90
2022-12-08T13:12:10.841Z,35.93
2022-12-08T13:17:18.259Z,37.07
2022-12-08T13:23:07.735Z,39.07
2022-12-08T13:28:26.627Z,37.27
2022-12-08T13:33:38.887Z,32.80
2022-12-08T13:38:45.025Z,33.70
2022-12-08T13:44:57.166Z,33.88
2022-12-08T13:51:23.937Z,32.83
2022-12-08T13:55:19.718Z,35.03
2022-12-08T13:59:44.286Z,36.67
2022-12-08T14:05:16.921Z,36.17
2022-12-08T14:09:52.138Z,35.23
2022-12-08T14:15:03.852Z,34.60
2022-12-08T14:20:16.524Z,34.13
2022-12-08T14:25:20.059Z,34.57
2022-12-08T14:30:33.436Z,42.37
2022-12-08T14:35:38.265Z,37.87
2022-12-08T14:41:07.373Z,43.33
2022-12-08T14:46:22.646Z,33.37
2022-12-08T14:51:31.770Z,35.13
2022-12-08T14:56:38.646Z,35.33
2022-12-08T15:01:43.180Z,34.67
2022-12-08T15:07:09.158Z,35.97
2022-12-08T15:12:26.668Z,41.57
2022-12-08T15:17:43.102Z,50.63
2022-12-08T15:22:45.026Z,58.63
2022-12-08T15:27:50.706Z,54.10
2022-12-08T15:32:52.398Z,41.73
2022-12-08T15:37:54.330Z,41.37
2022-12-08T15:42:57.438Z,48.47
2022-12-08T15:47:59.312Z,41.37
2022-12-08T15:53:01.198Z,43.60
2022-12-08T15:58:51.887Z,41.07
2022-12-08T16:03:34.576Z,42.03
2022-12-08T16:13:56.764Z,38.53
2022-12-08T16:18:49.141Z,38.80
2022-12-08T16:23:50.908Z,35.27
2022-12-08T16:28:55.064Z,34.97
2022-12-08T16:33:57.313Z,42.83
2022-12-08T16:39:00.776Z,47.33
2022-12-08T16:44:04.681Z,77.77
2022-12-08T16:49:08.938Z,40.93
2022-12-08T16:54:11.360Z,43.93
2022-12-08T16:59:13.095Z,41.63
2022-12-08T17:04:31.021Z,39.30
2022-12-08T17:09:19.786Z,36.40
2022-12-08T17:14:21.930Z,40.57
2022-12-08T17:19:24.153Z,36.97
2022-12-08T17:24:27.836Z,34.00
2022-12-08T17:29:31.605Z,34.10
2022-12-08T17:34:33.531Z,35.23
2022-12-08T17:39:37.368Z,29.93
2022-12-08T17:44:39.223Z,35.33
2022-12-08T17:49:41.549Z,46.60
2022-12-08T17:54:43.574Z,49.07
2022-12-08T17:59:45.451Z,41.37
2022-12-08T18:04:47.677Z,43.57
2022-12-08T18:09:50.925Z,42.60
2022-12-08T18:14:52.737Z,51.37
2022-12-08T18:19:54.867Z,49.37
2022-12-08T18:24:56.980Z,38.17
2022-12-08T18:30:00.284Z,40.10
2022-12-08T18:35:02.149Z,37.17
2022-12-08T18:40:06.173Z,35.83
2022-12-08T18:45:09.550Z,39.93
2022-12-08T18:50:12.284Z,41.43
2022-12-08T18:55:16.098Z,40.10
2022-12-08T19:00:20.196Z,48.07
2022-12-08T19:05:22.944Z,47.10
2022-12-08T19:10:25.810Z,49.33
2022-12-08T19:15:28.478Z,44.30
2022-12-08T19:20:30.653Z,37.03
2022-12-08T19:25:33.953Z,35.63
2022-12-08T19:30:35.917Z,35.97
2022-12-08T19:35:38.565Z,35.60
2022-12-08T19:41:01.246Z,36.10
2022-12-08T19:46:08.734Z,36.33
2022-12-08T19:51:11.845Z,34.83
2022-12-08T19:56:14.632Z,35.27
2022-12-08T20:01:19.276Z,33.47
2022-12-08T20:06:22.622Z,35.77
2022-12-08T20:11:24.534Z,33.67
2022-12-08T20:16:26.497Z,36.53
2022-12-08T20:21:29.797Z,36.77
2022-12-08T20:26:32.730Z,35.07
2022-12-08T20:31:35.526Z,34.40
2022-12-08T20:36:38.517Z,35.57
2022-12-08T20:41:43.548Z,36.57
2022-12-08T20:46:49.400Z,37.50
2022-12-08T20:51:49.888Z,40.67
2022-12-08T20:56:52.070Z,44.83
2022-12-08T21:01:55.442Z,39.77
2022-12-08T21:06:59.349Z,41.20
2022-12-08T21:12:01.901Z,40.57
2022-12-08T21:17:04.189Z,41.00
2022-12-08T21:22:06.209Z,39.77
2022-12-08T21:27:08.786Z,46.43
2022-12-08T21:32:11.350Z,50.10
2022-12-08T21:37:13.672Z,46.17
2022-12-08T21:42:34.853Z,45.83
2022-12-08T21:47:37.738Z,43.43
2022-12-08T21:52:43.055Z,42.43
2022-12-08T21:57:45.367Z,40.83
2022-12-08T22:02:47.704Z,37.23
2022-12-08T22:07:50.462Z,35.97
2022-12-08T22:12:52.991Z,36.53
2022-12-08T22:17:55.441Z,36.23
2022-12-08T22:22:58.242Z,35.57
2022-12-08T22:28:00.145Z,34.23
2022-12-08T22:33:02.617Z,34.93
2022-12-08T22:38:04.748Z,31.63
2022-12-08T22:43:07.433Z,33.23
2022-12-08T22:48:09.536Z,35.90
2022-12-08T22:53:13.959Z,35.90
2022-12-08T22:58:15.856Z,34.73
2022-12-08T23:03:19.573Z,36.00
2022-12-08T23:08:21.543Z,34.47
2022-12-08T23:13:24.466Z,31.60
2022-12-08T23:18:26.448Z,33.67
2022-12-08T23:23:28.716Z,33.07
2022-12-08T23:28:31.557Z,31.97
2022-12-08T23:33:34.116Z,33.03
2022-12-08T23:38:36.401Z,31.47
2022-12-08T23:43:45.373Z,33.40
2022-12-08T23:48:47.503Z,33.83
2022-12-08T23:53:49.993Z,30.57
2022-12-08T23:58:52.265Z,37.13
